Time;durP1;ratioP1;P1;durP2;ratioP2;P2;SDS_P1;SDS_P2;PMS_P1;PMS_P2;Temp;Humidity;BMP_temperature;BMP_pressure;BME280_temperature;BME280_humidity;BME280_pressure;Samples;Min_cycle;Max_cycle;Signal;HPM_P1;HPM_P2
2023/07/11 04:30:27;;;;;;;8.77;3.50;;;19.50;82.50;;;;;;5866149;23;20059;-77
2023/07/11 04:32:52;;;;;;;9.07;3.45;;;19.50;82.30;;;;;;4911187;29;20044;-77
2023/07/11 04:35:18;;;;;;;6.60;3.67;;;19.40;82.70;;;;;;4916353;29;20036;-77
2023/07/11 04:37:44;;;;;;;9.70;3.85;;;19.40;82.50;;;;;;4900098;29;20064;-77
2023/07/11 04:40:11;;;;;;;10.95;3.63;;;19.50;82.60;;;;;;4882687;29;20036;-77
2023/07/11 04:42:37;;;;;;;9.50;3.95;;;19.50;82.40;;;;;;4883020;29;20109;-77
2023/07/11 04:45:03;;;;;;;12.40;3.95;;;19.50;82.70;;;;;;4899709;29;20048;-77
2023/07/11 04:47:30;;;;;;;8.43;3.55;;;19.50;82.70;;;;;;4882465;29;20875;-81
2023/07/11 04:49:55;;;;;;;11.25;4.18;;;19.40;82.80;;;;;;4899497;29;20646;-80
2023/07/11 04:52:21;;;;;;;10.07;3.42;;;19.50;83.00;;;;;;4882498;29;20028;-79
2023/07/11 04:54:47;;;;;;;7.90;3.85;;;19.50;82.80;;;;;;4898605;29;20437;-81
2023/07/11 04:57:12;;;;;;;8.60;4.10;;;19.50;83.10;;;;;;4898644;29;20075;-78
2023/07/11 04:59:38;;;;;;;8.23;3.67;;;19.50;83.00;;;;;;4903444;29;20068;-80
2023/07/11 05:02:04;;;;;;;8.57;3.40;;;19.50;82.80;;;;;;4893383;29;20115;-81
2023/07/11 05:04:29;;;;;;;9.73;3.10;;;19.60;82.70;;;;;;4913787;29;20043;-81
2023/07/11 05:06:55;;;;;;;12.52;3.90;;;19.60;82.60;;;;;;4910350;29;20540;-78
2023/07/11 05:09:21;;;;;;;10.82;4.05;;;19.60;82.40;;;;;;4904515;29;20056;-80
2023/07/11 05:11:47;;;;;;;8.20;3.40;;;19.60;82.40;;;;;;4921665;29;20111;-81
2023/07/11 05:14:13;;;;;;;10.25;3.78;;;19.60;82.60;;;;;;4906167;29;20067;-78
2023/07/11 05:16:39;;;;;;;8.40;3.72;;;19.60;82.50;;;;;;4885570;29;20029;-78
2023/07/11 05:19:04;;;;;;;7.97;3.63;;;19.60;82.50;;;;;;4916168;29;20119;-78
2023/07/11 05:21:30;;;;;;;9.60;3.92;;;19.60;82.60;;;;;;4921785;29;20067;-82
2023/07/11 05:23:55;;;;;;;8.93;4.05;;;19.60;82.70;;;;;;4903762;29;20495;-83
2023/07/11 05:26:21;;;;;;;8.18;3.40;;;19.60;82.80;;;;;;4920485;29;20391;-86
2023/07/11 05:28:48;;;;;;;9.10;3.50;;;19.60;82.80;;;;;;4902319;29;20086;-80
2023/07/11 05:31:14;;;;;;;9.10;3.22;;;19.60;82.80;;;;;;4896444;29;20059;-80
2023/07/11 05:33:40;;;;;;;9.68;3.97;;;19.70;82.60;;;;;;4922716;29;20175;-80
2023/07/11 05:38:51;;;;;;;5.45;2.88;;;19.80;82.50;;;;;;4940001;29;20030;-79
2023/07/11 05:41:18;;;;;;;10.65;3.83;;;19.80;82.40;;;;;;4939161;29;20050;-78
2023/07/11 05:43:44;;;;;;;7.95;3.15;;;19.90;82.20;;;;;;4918441;29;20400;-79
2023/07/11 05:46:10;;;;;;;8.88;3.92;;;19.90;82.20;;;;;;4903039;29;20096;-79
2023/07/11 05:48:36;;;;;;;7.63;3.40;;;19.90;82.00;;;;;;4920768;29;20035;-79
2023/07/11 05:51:21;;;;;;;9.90;3.65;;;19.90;82.00;;;;;;4934033;29;20078;-84
2023/07/11 05:53:48;;;;;;;8.68;3.30;;;20.00;81.90;;;;;;4908802;29;20040;-82
2023/07/11 05:56:15;;;;;;;9.13;3.72;;;20.00;81.80;;;;;;4912296;29;20039;-81
2023/07/11 05:58:44;;;;;;;9.40;3.55;;;20.00;81.80;;;;;;4924237;29;20912;-81
2023/07/11 06:01:15;;;;;;;7.20;3.00;;;20.00;81.90;;;;;;4939285;29;20032;-81
2023/07/11 06:03:45;;;;;;;6.32;3.03;;;19.90;82.10;;;;;;4917793;29;20039;-80
2023/07/11 06:06:11;;;;;;;9.80;3.78;;;20.00;82.00;;;;;;4920376;29;20032;-80
2023/07/11 06:08:37;;;;;;;6.53;2.97;;;20.00;82.00;;;;;;4933602;29;20388;-80
2023/07/11 06:11:04;;;;;;;9.02;3.03;;;20.00;81.70;;;;;;4906073;29;20124;-80
2023/07/11 06:13:32;;;;;;;7.75;2.92;;;20.10;81.60;;;;;;4920330;29;20483;-80
2023/07/11 06:16:12;;;;;;;7.43;2.95;;;20.10;81.60;;;;;;4920080;29;20040;-80
2023/07/11 06:18:39;;;;;;;9.20;2.67;;;20.10;81.80;;;;;;4920039;29;20074;-80
2023/07/11 06:21:08;;;;;;;8.98;3.50;;;20.10;81.80;;;;;;4934692;29;20035;-80
2023/07/11 06:23:34;;;;;;;6.53;2.65;;;20.20;81.60;;;;;;4939489;29;20059;-80
2023/07/11 06:25:59;;;;;;;7.88;2.67;;;20.20;81.60;;;;;;4921440;29;20031;-80
2023/07/11 06:28:26;;;;;;;7.88;2.85;;;20.30;81.40;;;;;;4938849;29;20039;-80
2023/07/11 06:30:56;;;;;;;5.32;2.17;;;20.30;81.40;;;;;;4939114;29;20063;-80
2023/07/11 06:33:22;;;;;;;4.40;2.05;;;20.30;81.20;;;;;;4918355;29;20024;-80
2023/07/11 06:35:49;;;;;;;6.20;2.97;;;20.30;81.20;;;;;;4918473;29;20099;-80
2023/07/11 06:38:16;;;;;;;7.75;2.90;;;20.50;81.00;;;;;;4915635;29;20505;-81
2023/07/11 06:40:48;;;;;;;7.60;2.65;;;20.50;80.70;;;;;;4903189;29;20110;-80
2023/07/11 06:43:13;;;;;;;6.85;2.45;;;20.70;80.50;;;;;;4902931;29;20039;-81
2023/07/11 06:45:39;;;;;;;5.88;2.50;;;20.80;79.90;;;;;;4920329;29;20028;-80
2023/07/11 06:48:05;;;;;;;7.85;2.35;;;20.90;79.40;;;;;;4902464;29;20544;-80
2023/07/11 06:50:30;;;;;;;6.50;2.03;;;20.80;79.10;;;;;;4920465;29;20028;-80
2023/07/11 06:52:56;;;;;;;5.30;2.30;;;20.80;78.80;;;;;;4936584;29;20574;-80
2023/07/11 06:55:21;;;;;;;6.72;2.20;;;20.90;78.60;;;;;;4938716;29;20115;-81
2023/07/11 06:57:47;;;;;;;6.28;1.98;;;21.00;78.30;;;;;;4920649;29;20027;-81
2023/07/11 07:00:13;;;;;;;5.78;1.85;;;21.00;77.90;;;;;;4919624;29;20080;-81
2023/07/11 07:02:40;;;;;;;3.03;1.58;;;21.10;77.90;;;;;;4909439;29;20025;-80
2023/07/11 07:05:05;;;;;;;7.78;2.60;;;21.10;77.50;;;;;;4902323;29;20040;-81
2023/07/11 07:07:31;;;;;;;9.02;2.30;;;21.20;77.60;;;;;;4902264;29;20399;-82
2023/07/11 07:09:58;;;;;;;5.70;1.95;;;21.30;77.30;;;;;;4919437;29;20056;-80
2023/07/11 07:12:24;;;;;;;4.82;2.10;;;21.60;76.70;;;;;;4938390;29;20032;-81
2023/07/11 07:14:50;;;;;;;3.90;1.48;;;21.80;76.00;;;;;;4920907;29;20032;-81
2023/07/11 07:17:15;;;;;;;7.00;1.98;;;21.90;75.50;;;;;;4919301;29;20042;-80
2023/07/11 07:19:41;;;;;;;5.78;1.90;;;22.00;75.00;;;;;;4923537;29;20072;-80
2023/07/11 07:22:07;;;;;;;5.38;2.10;;;22.20;74.40;;;;;;4902512;29;20028;-81
2023/07/11 07:24:32;;;;;;;7.40;1.70;;;22.40;74.20;;;;;;4919264;29;20107;-81
2023/07/11 07:26:58;;;;;;;5.57;1.70;;;22.50;73.20;;;;;;4919450;29;20032;-81
2023/07/11 07:29:24;;;;;;;5.57;2.00;;;22.50;72.90;;;;;;4918786;29;20026;-81
2023/07/11 07:31:50;;;;;;;3.88;1.70;;;22.50;73.00;;;;;;4926358;29;20066;-81
2023/07/11 07:34:15;;;;;;;5.38;1.85;;;22.60;72.50;;;;;;4933652;29;20032;-80
2023/07/11 07:36:41;;;;;;;3.72;1.67;;;22.90;70.80;;;;;;4932099;29;20491;-78
2023/07/11 07:39:07;;;;;;;4.43;1.45;;;22.70;71.40;;;;;;4926942;29;20034;-88
2023/07/11 07:41:32;;;;;;;3.70;1.33;;;23.30;70.40;;;;;;4920748;29;20031;-90
2023/07/11 07:43:58;;;;;;;3.35;1.58;;;24.90;63.90;;;;;;4938966;29;20023;-90
2023/07/11 07:46:24;;;;;;;5.28;1.77;;;25.00;64.30;;;;;;4938966;29;20024;-92
2023/07/11 07:48:49;;;;;;;5.97;1.85;;;26.60;60.50;;;;;;4932555;29;21402;-91
2023/07/11 07:51:17;;;;;;;3.50;1.35;;;27.80;56.40;;;;;;4921724;29;20027;-89
2023/07/11 07:53:43;;;;;;;3.55;1.00;;;28.30;55.30;;;;;;4921857;29;20087;-91
2023/07/11 07:56:13;;;;;;;4.63;1.73;;;28.60;53.20;;;;;;4921382;29;20036;-89
2023/07/11 07:58:40;;;;;;;4.72;1.25;;;30.20;49.20;;;;;;4920644;29;20028;-90
2023/07/11 08:01:06;;;;;;;4.53;1.30;;;28.50;52.30;;;;;;4938372;29;20042;-91
2023/07/11 08:03:36;;;;;;;3.35;1.40;;;29.40;50.00;;;;;;4919840;29;20024;-91
2023/07/11 08:06:02;;;;;;;4.80;1.50;;;28.90;51.20;;;;;;4920923;29;20062;-80
2023/07/11 08:08:28;;;;;;;3.58;1.33;;;28.60;52.50;;;;;;4934835;29;20024;-82
2023/07/11 08:10:54;;;;;;;3.55;1.73;;;29.30;50.30;;;;;;4936400;29;20028;-83
2023/07/11 08:13:20;;;;;;;3.72;1.90;;;28.90;50.50;;;;;;4924216;29;20075;-82
2023/07/11 08:15:45;;;;;;;3.88;1.30;;;27.70;53.10;;;;;;4923814;29;20031;-81
2023/07/11 08:18:11;;;;;;;2.60;1.15;;;26.90;54.90;;;;;;4918336;29;20688;-82
2023/07/11 08:20:37;;;;;;;4.07;1.40;;;26.90;55.40;;;;;;4940061;29;20398;-82
2023/07/11 08:23:03;;;;;;;7.43;1.65;;;28.00;52.80;;;;;;4940211;29;20083;-83
2023/07/11 08:25:29;;;;;;;6.43;1.33;;;27.90;53.20;;;;;;4940068;29;20487;-82
2023/07/11 08:27:54;;;;;;;4.72;1.30;;;27.50;54.20;;;;;;4938792;29;20023;-81
2023/07/11 08:30:20;;;;;;;5.63;2.00;;;26.90;55.90;;;;;;4940275;29;20402;-82
2023/07/11 08:32:46;;;;;;;4.20;1.17;;;26.60;57.10;;;;;;4919429;29;20031;-81
2023/07/11 08:35:12;;;;;;;3.05;1.10;;;26.40;57.40;;;;;;4941076;29;20031;-81
2023/07/11 08:37:37;;;;;;;4.53;1.48;;;26.10;57.70;;;;;;4941200;29;20039;-81
2023/07/11 08:40:04;;;;;;;3.50;1.13;;;25.90;59.20;;;;;;4938227;29;20031;-81
2023/07/11 08:42:40;;;;;;;4.55;1.50;;;25.70;59.80;;;;;;4938173;29;20408;-81
2023/07/11 08:45:28;;;;;;;5.95;1.30;;;25.50;60.50;;;;;;4940591;29;20028;-82
2023/07/11 08:48:24;;;;;;;4.47;1.55;;;25.70;60.50;;;;;;4940532;29;20024;-82
2023/07/11 08:51:14;;;;;;;2.65;0.90;;;26.30;59.00;;;;;;4933156;29;20059;-82
2023/07/11 08:53:47;;;;;;;3.08;1.15;;;26.30;58.30;;;;;;4935967;29;20066;-81
2023/07/11 08:56:19;;;;;;;3.05;0.98;;;26.00;58.40;;;;;;4923253;29;20464;-81
2023/07/11 08:58:48;;;;;;;3.78;1.20;;;25.80;59.00;;;;;;4940532;29;20039;-81
2023/07/11 09:01:40;;;;;;;3.40;1.50;;;25.50;60.50;;;;;;4935039;29;20056;-82
2023/07/11 09:04:10;;;;;;;4.80;1.10;;;25.70;60.60;;;;;;4939305;29;20399;-81
2023/07/11 09:06:59;;;;;;;3.42;1.10;;;26.00;59.10;;;;;;4937905;29;20034;-82
2023/07/11 09:09:25;;;;;;;4.43;1.10;;;27.60;54.60;;;;;;4921856;29;20051;-81
2023/07/11 09:11:57;;;;;;;20.05;18.70;;;27.20;55.10;;;;;;4938432;29;20114;-82
2023/07/11 09:14:34;;;;;;;4.28;1.13;;;27.50;54.30;;;;;;4922450;29;20056;-82
2023/07/11 09:17:13;;;;;;;3.17;0.95;;;28.30;53.00;;;;;;4937660;29;20032;-82
2023/07/11 09:19:48;;;;;;;4.38;0.80;;;28.50;51.50;;;;;;4918888;29;20111;-81
2023/07/11 09:22:19;;;;;;;3.00;1.20;;;28.30;52.60;;;;;;4937500;29;20035;-82
2023/07/11 09:25:07;;;;;;;3.42;1.13;;;27.80;53.60;;;;;;4935814;29;20059;-81
2023/07/11 09:27:45;;;;;;;3.60;1.42;;;27.30;54.60;;;;;;4940088;29;20023;-82
2023/07/11 09:30:23;;;;;;;4.95;1.40;;;27.40;55.10;;;;;;4940014;29;20027;-82
2023/07/11 09:32:49;;;;;;;5.68;1.23;;;27.90;53.40;;;;;;4922460;29;20040;-81
2023/07/11 09:35:27;;;;;;;3.00;1.20;;;27.80;53.50;;;;;;4919231;29;20383;-82
2023/07/11 09:38:21;;;;;;;2.80;1.08;;;27.70;53.60;;;;;;4936998;29;20478;-81
2023/07/11 09:41:16;;;;;;;4.57;1.10;;;27.50;54.20;;;;;;4936871;29;20048;-82
2023/07/11 09:43:42;;;;;;;3.10;1.10;;;27.10;54.70;;;;;;4937094;29;20024;-81
2023/07/11 09:46:16;;;;;;;5.28;1.27;;;27.10;54.70;;;;;;4939501;29;20028;-82
2023/07/11 09:48:45;;;;;;;3.95;1.20;;;27.20;54.60;;;;;;4934771;29;20027;-81
2023/07/11 09:51:38;;;;;;;2.22;0.90;;;27.20;53.90;;;;;;4937162;29;20554;-82
2023/07/11 09:54:15;;;;;;;;;;;27.00;54.30;;;;;;4937517;29;20035;-81
2023/07/11 09:56:46;;;;;;;2.60;0.93;;;27.00;55.70;;;;;;4934419;29;20449;-82
2023/07/11 09:59:13;;;;;;;4.88;1.17;;;26.90;54.90;;;;;;4938526;29;20032;-81
2023/07/11 10:01:39;;;;;;;3.65;1.15;;;27.10;54.90;;;;;;4939189;29;20036;-81
2023/07/11 10:04:08;;;;;;;2.85;0.90;;;27.00;55.10;;;;;;4922224;29;20091;-82
2023/07/11 10:06:52;;;;;;;2.55;0.98;;;27.30;53.70;;;;;;4934319;29;20467;-82
2023/07/11 10:09:23;;;;;;;2.38;0.98;;;27.40;52.80;;;;;;4938012;29;20075;-81
2023/07/11 10:11:59;;;;;;;2.45;0.88;;;27.20;53.80;;;;;;4938683;29;20062;-81
2023/07/11 10:14:30;;;;;;;5.85;1.30;;;26.90;54.50;;;;;;4919581;29;20040;-81
2023/07/11 10:16:57;;;;;;;4.50;1.10;;;26.70;54.90;;;;;;4919097;29;20028;-81
2023/07/11 10:19:23;;;;;;;3.83;1.20;;;26.50;55.70;;;;;;4937724;29;20035;-81
2023/07/11 10:21:51;;;;;;;2.25;1.00;;;26.40;56.20;;;;;;4937862;29;20032;-82
2023/07/11 10:24:25;;;;;;;2.55;0.95;;;26.40;55.40;;;;;;4935359;29;20051;-81
2023/07/11 10:27:00;;;;;;;2.95;1.13;;;26.50;55.00;;;;;;4938019;29;20028;-81
2023/07/11 10:29:28;;;;;;;3.47;1.08;;;26.80;54.60;;;;;;4921681;29;20398;-82
2023/07/11 10:32:09;;;;;;;5.40;1.30;;;26.70;54.60;;;;;;4934816;29;20470;-81
2023/07/11 10:34:45;;;;;;;3.22;1.00;;;26.70;55.30;;;;;;4936165;29;20172;-82
2023/07/11 10:37:33;;;;;;;3.35;0.80;;;26.80;55.40;;;;;;4936850;29;20035;-82
2023/07/11 10:40:27;;;;;;;2.22;1.13;;;26.60;55.50;;;;;;4936631;29;20589;-82
2023/07/11 10:42:56;;;;;;;3.03;0.90;;;26.50;55.30;;;;;;4932890;29;20110;-81
2023/07/11 10:45:27;;;;;;;3.78;1.15;;;26.30;54.90;;;;;;4920171;29;20020;-81
2023/07/11 10:47:59;;;;;;;2.78;0.73;;;26.60;54.90;;;;;;4938451;29;20558;-82
2023/07/11 10:50:25;;;;;;;;;;;26.50;55.20;;;;;;4935928;29;20422;-81
2023/07/11 10:52:53;;;;;;;2.42;0.90;;;26.80;54.90;;;;;;4938220;29;19907;-81
2023/07/11 10:55:30;;;;;;;2.85;0.80;;;26.80;54.80;;;;;;4938164;29;20016;-82
2023/07/11 10:57:57;;;;;;;3.45;0.80;;;26.60;55.30;;;;;;4932225;29;20027;-80
2023/07/11 11:01:06;;;;;;;2.92;1.00;;;26.60;55.70;;;;;;4936992;29;20034;-81
2023/07/11 11:03:46;;;;;;;4.38;0.90;;;26.80;55.90;;;;;;4912614;29;20087;-82
2023/07/11 11:06:31;;;;;;;2.83;0.70;;;27.20;54.80;;;;;;4933916;29;20019;-82
2023/07/11 11:09:35;;;;;;;3.88;0.90;;;27.30;54.80;;;;;;4918779;29;20023;-81
2023/07/11 11:12:20;;;;;;;2.58;1.00;;;27.70;54.90;;;;;;4907604;29;20040;-82
2023/07/11 11:15:00;;;;;;;3.85;0.90;;;27.50;53.70;;;;;;4937575;29;20066;-82
2023/07/11 11:18:27;;;;;;;3.80;1.10;;;27.40;54.20;;;;;;4937227;29;20892;-82
2023/07/11 11:21:03;;;;;;;3.60;1.05;;;27.30;54.50;;;;;;4853498;29;20046;-82
2023/07/11 11:23:41;;;;;;;3.67;1.10;;;27.30;55.00;;;;;;4859025;29;20126;-81
2023/07/11 11:26:24;;;;;;;3.75;1.20;;;27.20;55.10;;;;;;4916528;29;20039;-82
2023/07/11 11:29:17;;;;;;;3.80;1.10;;;27.10;55.40;;;;;;4934167;29;20028;-81
2023/07/11 11:31:56;;;;;;;;;;;26.90;55.60;;;;;;4936773;29;20071;-81
2023/07/11 11:34:27;;;;;;;2.40;1.10;;;26.90;55.70;;;;;;4920088;29;19910;-81
2023/07/11 11:37:18;;;;;;;2.85;0.90;;;27.20;56.20;;;;;;4919857;29;20047;-80
2023/07/11 11:40:00;;;;;;;4.40;1.30;;;27.40;55.30;;;;;;4917591;29;20122;-82
2023/07/11 11:42:33;;;;;;;2.90;0.82;;;27.70;54.70;;;;;;4935338;29;20023;-81
2023/07/11 11:45:08;;;;;;;4.90;1.23;;;27.60;54.70;;;;;;4937762;29;20020;-81
2023/07/11 11:47:35;;;;;;;3.58;1.00;;;27.70;55.00;;;;;;4937959;29;20027;-81
2023/07/11 11:50:02;;;;;;;3.42;1.25;;;27.80;54.20;;;;;;4925318;29;20031;-83
2023/07/11 11:52:34;;;;;;;4.32;1.20;;;27.80;54.20;;;;;;4926124;29;20542;-84
2023/07/11 11:55:00;;;;;;;7.90;1.58;;;28.00;55.10;;;;;;4937255;29;20032;-87
2023/07/11 11:57:31;;;;;;;4.75;1.20;;;28.50;54.60;;;;;;4940334;29;20127;-85
2023/07/11 11:59:59;;;;;;;3.83;1.27;;;28.50;52.50;;;;;;4924367;29;20116;-85
2023/07/11 12:02:39;;;;;;;4.93;1.10;;;28.50;53.20;;;;;;4922386;29;20035;-82
2023/07/11 12:05:18;;;;;;;4.60;1.30;;;28.50;53.80;;;;;;4942897;29;20039;-86
2023/07/11 12:07:44;;;;;;;3.40;1.20;;;28.50;53.70;;;;;;4939845;29;20153;-85
2023/07/11 12:10:32;;;;;;;4.28;1.52;;;28.60;51.70;;;;;;4923275;29;20572;-82
2023/07/11 12:13:26;;;;;;;3.75;1.30;;;28.60;52.30;;;;;;4921880;29;20036;-85
2023/07/11 12:15:54;;;;;;;5.28;1.17;;;28.50;51.60;;;;;;4936628;29;20087;-82
2023/07/11 12:18:36;;;;;;;4.57;1.40;;;28.40;52.40;;;;;;4938981;29;20023;-85
2023/07/11 12:21:14;;;;;;;3.67;1.10;;;28.50;52.50;;;;;;4923051;29;20032;-84
2023/07/11 12:23:42;;;;;;;3.35;1.00;;;28.80;52.50;;;;;;4940689;29;20056;-84
2023/07/11 12:26:11;;;;;;;2.45;0.80;;;28.90;51.80;;;;;;4924747;29;20035;-80
2023/07/11 12:28:37;;;;;;;4.38;1.20;;;28.90;50.40;;;;;;4923312;29;20122;-85
2023/07/11 12:31:13;;;;;;;2.85;1.00;;;28.70;50.60;;;;;;4927819;29;20079;-86
2023/07/11 12:33:39;;;;;;;3.13;0.80;;;28.80;52.00;;;;;;4936233;29;20031;-86
2023/07/11 12:36:26;;;;;;;3.65;1.17;;;28.70;50.30;;;;;;4933564;29;20060;-86
2023/07/11 12:39:17;;;;;;;4.90;1.00;;;28.70;51.00;;;;;;4922760;29;20112;-85
2023/07/11 12:42:41;;;;;;;3.40;1.10;;;28.50;51.50;;;;;;4937316;29;20063;-83
2023/07/11 12:45:20;;;;;;;3.70;1.35;;;28.30;52.40;;;;;;4826397;29;20038;-87
2023/07/11 12:47:49;;;;;;;3.25;1.20;;;28.40;51.10;;;;;;4904728;29;20048;-84
2023/07/11 12:50:46;;;;;;;4.53;1.30;;;28.40;51.50;;;;;;4920254;29;20032;-84
2023/07/11 12:53:13;;;;;;;3.17;1.10;;;28.50;50.90;;;;;;4920206;29;20161;-84
2023/07/11 12:55:42;;;;;;;3.38;0.90;;;28.60;50.70;;;;;;4939468;29;20032;-85
2023/07/11 12:58:34;;;;;;;3.13;0.93;;;28.60;49.90;;;;;;4936735;29;20039;-85
2023/07/11 13:00:59;;;;;;;4.37;1.30;;;28.50;49.70;;;;;;4935689;29;20040;-86
2023/07/11 13:03:34;;;;;;;3.67;1.27;;;28.40;49.70;;;;;;4939297;29;20126;-84
2023/07/11 13:06:03;;;;;;;4.25;0.98;;;28.20;49.90;;;;;;4940805;29;20032;-84
2023/07/11 13:08:30;;;;;;;2.08;0.80;;;28.10;51.10;;;;;;4922428;29;20031;-86
2023/07/11 13:11:01;;;;;;;4.75;1.30;;;28.10;50.20;;;;;;4922508;29;20146;-84
2023/07/11 13:13:29;;;;;;;2.13;0.90;;;28.00;51.10;;;;;;4937816;29;20023;-83
2023/07/11 13:16:02;;;;;;;2.40;1.00;;;27.90;50.20;;;;;;4922693;29;20123;-83
2023/07/11 13:18:46;;;;;;;;;;;27.80;50.30;;;;;;4935305;29;20028;-84
2023/07/11 13:21:12;;;;;;;2.72;0.70;;;27.70;49.90;;;;;;4919553;29;19915;-85
2023/07/11 13:23:41;;;;;;;2.65;0.80;;;27.60;50.70;;;;;;4940037;29;20384;-84
2023/07/11 13:26:09;;;;;;;2.88;0.88;;;27.80;50.80;;;;;;4935384;29;20020;-83
2023/07/11 13:28:40;;;;;;;2.00;0.52;;;28.10;50.20;;;;;;4940192;29;20032;-84
2023/07/11 13:31:23;;;;;;;1.77;0.70;;;28.30;50.70;;;;;;4937331;29;20051;-84
2023/07/11 13:34:21;;;;;;;2.13;0.63;;;28.30;49.60;;;;;;4903783;29;20035;-85
2023/07/11 13:36:49;;;;;;;2.00;0.70;;;28.40;49.80;;;;;;4906629;29;20043;-84
2023/07/11 13:39:43;;;;;;;1.77;0.60;;;28.20;48.20;;;;;;4920891;29;20724;-84
2023/07/11 13:42:10;;;;;;;2.78;0.75;;;28.30;49.30;;;;;;4936529;29;20058;-84
2023/07/11 13:44:41;;;;;;;4.18;1.10;;;28.40;47.70;;;;;;4919635;29;20054;-84
2023/07/11 13:47:19;;;;;;;3.08;0.57;;;28.30;49.00;;;;;;4939557;29;20020;-85
2023/07/11 13:49:55;;;;;;;1.35;0.68;;;28.50;49.50;;;;;;4936122;29;20083;-84
2023/07/11 13:52:38;;;;;;;2.10;0.50;;;28.60;48.10;;;;;;4935352;29;20062;-86
2023/07/11 13:55:20;;;;;;;2.83;0.70;;;28.90;47.90;;;;;;4936128;29;20520;-83
2023/07/11 13:57:46;;;;;;;1.95;0.90;;;29.20;48.00;;;;;;4938106;29;20042;-85
2023/07/11 14:00:14;;;;;;;2.15;0.90;;;29.20;46.90;;;;;;4938780;29;20032;-83
2023/07/11 14:02:41;;;;;;;3.78;0.82;;;29.30;47.60;;;;;;4929410;29;20028;-85
2023/07/11 14:05:30;;;;;;;1.35;0.60;;;29.10;46.90;;;;;;4920196;29;20024;-84
2023/07/11 14:07:58;;;;;;;1.83;0.60;;;28.90;45.80;;;;;;4919801;29;20032;-85
2023/07/11 14:10:27;;;;;;;2.58;0.77;;;29.20;46.80;;;;;;4937575;29;20034;-84
2023/07/11 14:12:54;;;;;;;2.63;0.73;;;29.20;46.20;;;;;;4922127;29;20031;-84
2023/07/11 14:15:22;;;;;;;3.45;0.70;;;29.20;46.40;;;;;;4926687;29;20030;-86
2023/07/11 14:17:49;;;;;;;2.80;0.90;;;29.20;46.50;;;;;;4929908;29;20068;-86
2023/07/11 14:20:18;;;;;;;3.17;0.70;;;28.90;46.00;;;;;;4938863;29;20027;-86
2023/07/11 14:22:45;;;;;;;3.45;0.85;;;28.60;46.70;;;;;;4935556;29;20035;-85
2023/07/11 14:25:25;;;;;;;2.28;1.00;;;28.60;47.40;;;;;;4921515;29;20066;-84
2023/07/11 14:27:51;;;;;;;3.78;1.08;;;28.50;46.80;;;;;;4916082;29;20043;-85
2023/07/11 14:30:18;;;;;;;2.83;1.02;;;28.80;47.00;;;;;;4920827;29;20036;-85
2023/07/11 14:32:48;;;;;;;2.85;0.73;;;28.80;46.80;;;;;;4920774;29;20059;-85
2023/07/11 14:35:19;;;;;;;2.92;1.00;;;29.00;46.60;;;;;;4921731;29;20119;-84
2023/07/11 14:37:46;;;;;;;5.65;1.05;;;29.00;46.10;;;;;;4916723;29;20036;-85
2023/07/11 14:40:25;;;;;;;1.77;0.90;;;28.80;46.00;;;;;;4921122;29;20079;-86
2023/07/11 14:42:51;;;;;;;3.95;1.15;;;28.80;46.30;;;;;;4937541;29;20414;-86
2023/07/11 14:45:19;;;;;;;2.92;0.90;;;29.00;46.40;;;;;;4938221;29;20310;-85
2023/07/11 14:47:47;;;;;;;2.85;0.90;;;29.20;45.40;;;;;;4934396;29;20042;-85
2023/07/11 14:50:17;;;;;;;3.55;0.82;;;29.00;45.70;;;;;;4938561;29;20027;-86
2023/07/11 14:52:44;;;;;;;3.55;1.10;;;29.00;46.40;;;;;;4936252;29;20027;-86
2023/07/11 14:55:11;;;;;;;2.67;0.95;;;28.90;46.00;;;;;;4937689;29;20030;-86
2023/07/11 14:57:42;;;;;;;3.92;0.90;;;28.90;46.80;;;;;;4935188;29;20039;-85
2023/07/11 15:00:29;;;;;;;3.78;1.73;;;28.90;45.50;;;;;;4936320;29;20039;-85
2023/07/11 15:02:55;;;;;;;4.00;0.88;;;28.70;45.40;;;;;;4920131;29;20034;-85
2023/07/11 15:05:26;;;;;;;3.53;1.52;;;28.70;46.00;;;;;;4936070;29;20027;-85
2023/07/11 15:07:52;;;;;;;5.23;1.23;;;28.80;46.20;;;;;;4937118;29;20020;-85
2023/07/11 15:10:19;;;;;;;4.10;1.08;;;28.90;46.10;;;;;;4937511;29;20047;-85
2023/07/11 15:12:47;;;;;;;2.72;1.10;;;29.10;46.70;;;;;;4937230;29;20234;-86
2023/07/11 15:15:18;;;;;;;5.20;1.20;;;28.80;46.20;;;;;;4936282;29;20039;-84
2023/07/11 15:17:45;;;;;;;3.78;1.23;;;28.70;46.80;;;;;;4919664;29;20122;-86
2023/07/11 15:20:13;;;;;;;3.38;1.20;;;29.00;46.70;;;;;;4919675;29;20047;-85
2023/07/11 15:22:41;;;;;;;2.60;0.90;;;29.20;46.80;;;;;;4920217;29;20056;-84
2023/07/11 15:25:21;;;;;;;3.92;1.20;;;29.10;45.90;;;;;;4937915;29;20036;-86
2023/07/11 15:27:46;;;;;;;2.33;0.80;;;29.00;46.30;;;;;;4935591;29;20032;-85
2023/07/11 15:30:16;;;;;;;2.65;1.00;;;29.20;46.20;;;;;;4919587;29;20042;-84
2023/07/11 15:32:43;;;;;;;4.50;1.00;;;28.90;45.50;;;;;;4930283;29;20051;-84
2023/07/11 15:35:17;;;;;;;3.45;1.00;;;28.60;46.00;;;;;;4901768;29;20064;-85
2023/07/11 15:37:47;;;;;;;2.75;0.90;;;28.60;47.70;;;;;;4901636;29;20036;-84
2023/07/11 15:40:22;;;;;;;3.60;1.00;;;28.40;47.80;;;;;;4919127;29;20064;-84
2023/07/11 15:42:50;;;;;;;3.30;0.95;;;28.50;47.20;;;;;;4901171;29;20697;-85
2023/07/11 15:45:27;;;;;;;1.98;1.00;;;28.50;47.60;;;;;;4902213;29;20526;-85
2023/07/11 15:47:53;;;;;;;4.90;1.10;;;28.40;48.00;;;;;;4933271;29;20127;-85
2023/07/11 15:50:25;;;;;;;2.65;0.88;;;28.20;48.40;;;;;;4938153;29;20031;-85
2023/07/11 15:52:51;;;;;;;2.22;0.80;;;28.00;49.30;;;;;;4923581;29;20043;-85
2023/07/11 15:55:23;;;;;;;3.97;0.90;;;27.80;49.50;;;;;;4902207;29;20411;-84
2023/07/11 15:57:50;;;;;;;1.80;0.60;;;27.60;49.10;;;;;;4925194;29;20034;-86
2023/07/11 16:00:22;;;;;;;2.58;0.73;;;27.70;49.30;;;;;;4920694;29;20046;-86
2023/07/11 16:02:48;;;;;;;2.78;0.82;;;27.50;50.20;;;;;;4931232;29;20032;-85
2023/07/11 16:05:15;;;;;;;3.22;0.85;;;27.50;50.30;;;;;;4908957;29;20449;-85
2023/07/11 16:07:43;;;;;;;3.78;0.75;;;27.70;49.60;;;;;;4933110;29;20028;-85
2023/07/11 16:10:21;;;;;;;1.92;0.70;;;27.80;48.70;;;;;;4935877;29;20115;-84
2023/07/11 16:12:47;;;;;;;1.33;0.60;;;27.60;49.80;;;;;;4920125;29;20604;-85
2023/07/11 16:15:13;;;;;;;1.95;0.52;;;27.50;50.40;;;;;;4937108;29;20056;-81
2023/07/11 16:17:40;;;;;;;1.50;0.70;;;27.40;50.70;;;;;;4915623;29;20447;-86
2023/07/11 16:20:27;;;;;;;3.33;0.85;;;27.30;50.80;;;;;;4935386;29;20034;-85
2023/07/11 16:22:53;;;;;;;2.78;0.85;;;27.40;51.90;;;;;;4916978;29;20024;-86
2023/07/11 16:25:20;;;;;;;2.17;0.82;;;27.30;51.80;;;;;;4916116;29;20060;-85
2023/07/11 16:27:50;;;;;;;2.55;0.93;;;27.30;51.90;;;;;;4936965;29;20016;-86
2023/07/11 16:30:27;;;;;;;2.72;0.88;;;27.20;52.40;;;;;;4919924;29;20039;-88
2023/07/11 16:32:54;;;;;;;1.58;1.10;;;27.00;52.20;;;;;;4900916;29;20040;-86
2023/07/11 16:35:36;;;;;;;2.33;0.70;;;27.00;52.70;;;;;;4920034;29;20052;-88
2023/07/11 16:38:02;;;;;;;2.08;0.63;;;27.20;52.80;;;;;;4898357;29;20028;-77
2023/07/11 16:40:29;;;;;;;3.63;0.70;;;27.00;52.90;;;;;;4918505;29;20394;-85
2023/07/11 16:42:55;;;;;;;1.50;0.45;;;27.00;53.10;;;;;;4921497;29;20111;-85
2023/07/11 16:45:32;;;;;;;2.28;0.55;;;26.80;52.50;;;;;;4903713;29;20036;-80
2023/07/11 16:47:58;;;;;;;3.10;0.70;;;26.80;52.50;;;;;;4902776;29;20032;-85
2023/07/11 16:50:29;;;;;;;2.92;0.70;;;26.60;53.00;;;;;;4919571;29;20032;-85
2023/07/11 16:52:57;;;;;;;3.10;0.75;;;26.60;53.30;;;;;;4920426;29;20026;-89
2023/07/11 16:55:27;;;;;;;2.58;0.60;;;26.50;54.10;;;;;;4900908;29;20059;-89
2023/07/11 16:57:53;;;;;;;3.13;0.80;;;26.70;54.20;;;;;;4920682;29;20029;-80
2023/07/11 17:00:26;;;;;;;1.15;0.52;;;26.70;54.70;;;;;;4920454;29;20051;-81
2023/07/11 17:02:53;;;;;;;2.10;0.60;;;26.40;54.20;;;;;;4902931;29;20483;-78
2023/07/11 17:05:19;;;;;;;2.53;0.80;;;26.40;54.10;;;;;;4903162;29;20507;-79
2023/07/11 17:07:49;;;;;;;1.60;0.60;;;26.60;54.10;;;;;;4920181;29;20090;-83
2023/07/11 17:10:16;;;;;;;0.70;0.40;;;26.70;54.40;;;;;;4921750;29;20036;-79
2023/07/11 17:12:44;;;;;;;2.35;0.70;;;26.50;54.30;;;;;;4911055;29;20119;-84
2023/07/11 17:15:17;;;;;;;1.83;0.60;;;26.30;54.50;;;;;;4918411;29;20494;-83
2023/07/11 17:17:43;;;;;;;2.97;0.68;;;26.20;53.70;;;;;;4913207;29;20440;-85
2023/07/11 17:20:20;;;;;;;2.72;0.73;;;26.10;54.40;;;;;;4911172;29;20032;-82
2023/07/11 17:22:47;;;;;;;2.45;1.00;;;25.80;54.70;;;;;;4909016;29;20036;-84
2023/07/11 17:25:16;;;;;;;2.53;0.90;;;25.80;55.30;;;;;;4904675;29;20476;-84
2023/07/11 17:27:46;;;;;;;1.92;0.73;;;25.70;55.10;;;;;;4903089;29;20031;-84
2023/07/11 17:30:17;;;;;;;3.78;1.17;;;25.60;55.10;;;;;;4902432;29;20056;-84
2023/07/11 17:32:45;;;;;;;3.88;1.35;;;25.70;55.30;;;;;;4935607;29;20062;-85
2023/07/11 17:35:14;;;;;;;2.78;0.90;;;25.80;54.90;;;;;;4931112;29;20040;-86
2023/07/11 17:37:41;;;;;;;3.03;1.10;;;25.90;54.50;;;;;;4904845;29;20032;-83
2023/07/11 17:40:18;;;;;;;2.53;0.90;;;25.80;54.00;;;;;;4904442;29;20100;-85
2023/07/11 17:42:43;;;;;;;5.38;1.10;;;25.70;54.10;;;;;;4921026;29;20020;-87